sensor_id;sensor_type;location;lat;lon;timestamp;temperature;humidity
18392;DHT22;9322;50.932;5.318;2022-12-20T00:02:21;12.40;97.80
18392;DHT22;9322;50.932;5.318;2022-12-20T00:04:46;12.40;98.40
18392;DHT22;9322;50.932;5.318;2022-12-20T00:07:12;12.50;97.40
18392;DHT22;9322;50.932;5.318;2022-12-20T00:09:37;12.40;99.40
18392;DHT22;9322;50.932;5.318;2022-12-20T00:12:03;12.30;99.00
18392;DHT22;9322;50.932;5.318;2022-12-20T00:14:29;12.40;99.90
18392;DHT22;9322;50.932;5.318;2022-12-20T00:16:54;12.40;98.50
18392;DHT22;9322;50.932;5.318;2022-12-20T00:19:20;12.30;98.40
18392;DHT22;9322;50.932;5.318;2022-12-20T00:21:46;12.30;98.70
18392;DHT22;9322;50.932;5.318;2022-12-20T00:24:11;12.30;98.10
18392;DHT22;9322;50.932;5.318;2022-12-20T00:26:37;12.30;98.90
18392;DHT22;9322;50.932;5.318;2022-12-20T00:29:03;12.40;98.50
18392;DHT22;9322;50.932;5.318;2022-12-20T00:31:30;12.30;98.60
18392;DHT22;9322;50.932;5.318;2022-12-20T00:33:58;12.30;99.00
18392;DHT22;9322;50.932;5.318;2022-12-20T00:36:25;12.20;99.40
18392;DHT22;9322;50.932;5.318;2022-12-20T00:38:54;12.30;99.70
18392;DHT22;9322;50.932;5.318;2022-12-20T00:41:22;12.30;99.90
18392;DHT22;9322;50.932;5.318;2022-12-20T00:43:48;12.20;99.90
18392;DHT22;9322;50.932;5.318;2022-12-20T00:46:15;12.20;99.90
18392;DHT22;9322;50.932;5.318;2022-12-20T00:48:41;12.10;99.90
18392;DHT22;9322;50.932;5.318;2022-12-20T00:51:12;12.00;99.90
18392;DHT22;9322;50.932;5.318;2022-12-20T00:53:38;12.00;99.90
18392;DHT22;9322;50.932;5.318;2022-12-20T00:56:04;12.00;99.90
18392;DHT22;9322;50.932;5.318;2022-12-20T00:58:35;11.90;99.90
18392;DHT22;9322;50.932;5.318;2022-12-20T01:01:01;12.00;99.90
18392;DHT22;9322;50.932;5.318;2022-12-20T01:03:28;11.90;99.90
18392;DHT22;9322;50.932;5.318;2022-12-20T01:05:56;12.00;99.90
18392;DHT22;9322;50.932;5.318;2022-12-20T01:08:24;11.90;99.90
18392;DHT22;9322;50.932;5.318;2022-12-20T01:13:38;12.00;99.90
18392;DHT22;9322;50.932;5.318;2022-12-20T01:16:28;12.20;99.90
18392;DHT22;9322;50.932;5.318;2022-12-20T01:18:55;12.00;99.90
18392;DHT22;9322;50.932;5.318;2022-12-20T01:21:22;11.80;99.90
18392;DHT22;9322;50.932;5.318;2022-12-20T01:23:48;11.80;99.90
18392;DHT22;9322;50.932;5.318;2022-12-20T01:26:16;11.60;99.90
18392;DHT22;9322;50.932;5.318;2022-12-20T01:28:44;11.60;99.90
18392;DHT22;9322;50.932;5.318;2022-12-20T01:31:15;11.50;99.90
18392;DHT22;9322;50.932;5.318;2022-12-20T01:33:41;11.50;99.90
18392;DHT22;9322;50.932;5.318;2022-12-20T01:36:12;11.40;99.90
18392;DHT22;9322;50.932;5.318;2022-12-20T01:38:38;11.60;99.90
18392;DHT22;9322;50.932;5.318;2022-12-20T01:41:03;11.50;99.90
18392;DHT22;9322;50.932;5.318;2022-12-20T01:46:19;11.50;99.90
18392;DHT22;9322;50.932;5.318;2022-12-20T01:48:53;11.50;99.90
18392;DHT22;9322;50.932;5.318;2022-12-20T01:51:22;11.20;99.90
18392;DHT22;9322;50.932;5.318;2022-12-20T01:53:50;11.10;99.90
18392;DHT22;9322;50.932;5.318;2022-12-20T01:56:17;11.10;99.90
18392;DHT22;9322;50.932;5.318;2022-12-20T01:58:47;11.00;99.90
18392;DHT22;9322;50.932;5.318;2022-12-20T02:01:13;11.10;99.90
18392;DHT22;9322;50.932;5.318;2022-12-20T02:03:40;11.10;99.90
18392;DHT22;9322;50.932;5.318;2022-12-20T02:06:19;11.30;99.90
18392;DHT22;9322;50.932;5.318;2022-12-20T02:08:47;11.20;99.90
18392;DHT22;9322;50.932;5.318;2022-12-20T02:16:27;11.40;99.90
18392;DHT22;9322;50.932;5.318;2022-12-20T02:21:45;11.50;99.90
18392;DHT22;9322;50.932;5.318;2022-12-20T02:32:39;11.50;99.90
18392;DHT22;9322;50.932;5.318;2022-12-20T02:35:08;11.50;99.90
18392;DHT22;9322;50.932;5.318;2022-12-20T02:37:35;11.50;99.90
18392;DHT22;9322;50.932;5.318;2022-12-20T02:40:01;11.30;99.90
18392;DHT22;9322;50.932;5.318;2022-12-20T02:42:30;11.30;99.90
18392;DHT22;9322;50.932;5.318;2022-12-20T02:45:04;11.30;99.90
18392;DHT22;9322;50.932;5.318;2022-12-20T02:47:47;11.20;99.90
18392;DHT22;9322;50.932;5.318;2022-12-20T02:50:17;11.10;99.90
18392;DHT22;9322;50.932;5.318;2022-12-20T02:52:45;11.00;99.90
18392;DHT22;9322;50.932;5.318;2022-12-20T02:55:11;11.00;99.90
18392;DHT22;9322;50.932;5.318;2022-12-20T02:57:51;10.90;99.90
18392;DHT22;9322;50.932;5.318;2022-12-20T03:00:21;10.80;99.90
18392;DHT22;9322;50.932;5.318;2022-12-20T03:02:48;10.70;99.90
18392;DHT22;9322;50.932;5.318;2022-12-20T03:05:35;10.70;99.90
18392;DHT22;9322;50.932;5.318;2022-12-20T03:08:03;10.70;99.90
18392;DHT22;9322;50.932;5.318;2022-12-20T03:10:28;10.80;99.90
18392;DHT22;9322;50.932;5.318;2022-12-20T03:12:54;10.80;99.90
18392;DHT22;9322;50.932;5.318;2022-12-20T03:15:20;11.00;99.90
18392;DHT22;9322;50.932;5.318;2022-12-20T03:17:46;11.00;99.90
18392;DHT22;9322;50.932;5.318;2022-12-20T03:20:11;11.20;99.90
18392;DHT22;9322;50.932;5.318;2022-12-20T03:22:37;11.10;99.90
18392;DHT22;9322;50.932;5.318;2022-12-20T03:25:03;11.20;99.90
18392;DHT22;9322;50.932;5.318;2022-12-20T03:27:29;11.10;99.90
18392;DHT22;9322;50.932;5.318;2022-12-20T03:29:55;11.20;99.90
18392;DHT22;9322;50.932;5.318;2022-12-20T03:32:21;11.20;99.90
18392;DHT22;9322;50.932;5.318;2022-12-20T03:34:46;11.10;99.90
18392;DHT22;9322;50.932;5.318;2022-12-20T03:37:12;11.20;99.90
18392;DHT22;9322;50.932;5.318;2022-12-20T03:39:38;11.30;99.90
18392;DHT22;9322;50.932;5.318;2022-12-20T03:42:03;11.30;99.90
18392;DHT22;9322;50.932;5.318;2022-12-20T03:44:29;11.40;99.90
18392;DHT22;9322;50.932;5.318;2022-12-20T03:46:55;11.40;99.90
18392;DHT22;9322;50.932;5.318;2022-12-20T03:49:21;11.30;99.90
18392;DHT22;9322;50.932;5.318;2022-12-20T03:51:46;11.10;99.90
18392;DHT22;9322;50.932;5.318;2022-12-20T03:54:12;11.20;99.90
18392;DHT22;9322;50.932;5.318;2022-12-20T03:56:37;11.10;99.90
18392;DHT22;9322;50.932;5.318;2022-12-20T03:59:04;10.90;99.90
18392;DHT22;9322;50.932;5.318;2022-12-20T04:01:30;10.80;99.90
18392;DHT22;9322;50.932;5.318;2022-12-20T04:03:56;10.80;99.90
18392;DHT22;9322;50.932;5.318;2022-12-20T04:06:22;10.70;99.90
18392;DHT22;9322;50.932;5.318;2022-12-20T04:08:48;10.70;99.90
18392;DHT22;9322;50.932;5.318;2022-12-20T04:11:14;10.70;99.90
18392;DHT22;9322;50.932;5.318;2022-12-20T04:13:41;10.80;99.90
18392;DHT22;9322;50.932;5.318;2022-12-20T04:16:06;10.90;99.90
18392;DHT22;9322;50.932;5.318;2022-12-20T04:18:32;10.90;99.90
18392;DHT22;9322;50.932;5.318;2022-12-20T04:20:59;11.00;99.90
18392;DHT22;9322;50.932;5.318;2022-12-20T04:23:25;11.00;99.90
18392;DHT22;9322;50.932;5.318;2022-12-20T04:25:51;10.90;99.90
18392;DHT22;9322;50.932;5.318;2022-12-20T04:28:17;11.00;99.90
18392;DHT22;9322;50.932;5.318;2022-12-20T04:30:42;11.20;99.90
18392;DHT22;9322;50.932;5.318;2022-12-20T04:33:08;11.20;99.90
18392;DHT22;9322;50.932;5.318;2022-12-20T04:35:34;11.20;99.90
18392;DHT22;9322;50.932;5.318;2022-12-20T04:38:00;11.30;99.90
18392;DHT22;9322;50.932;5.318;2022-12-20T04:40:26;11.50;99.90
18392;DHT22;9322;50.932;5.318;2022-12-20T04:42:51;11.30;99.90
18392;DHT22;9322;50.932;5.318;2022-12-20T04:45:17;11.30;99.90
18392;DHT22;9322;50.932;5.318;2022-12-20T04:47:43;11.40;99.90
18392;DHT22;9322;50.932;5.318;2022-12-20T04:50:08;11.40;99.90
18392;DHT22;9322;50.932;5.318;2022-12-20T04:52:34;11.50;99.90
18392;DHT22;9322;50.932;5.318;2022-12-20T04:55:18;11.50;99.90
18392;DHT22;9322;50.932;5.318;2022-12-20T04:57:44;11.50;99.90
18392;DHT22;9322;50.932;5.318;2022-12-20T05:00:10;11.40;99.90
18392;DHT22;9322;50.932;5.318;2022-12-20T05:02:36;11.50;99.90
18392;DHT22;9322;50.932;5.318;2022-12-20T05:05:02;11.60;99.90
18392;DHT22;9322;50.932;5.318;2022-12-20T05:07:28;11.60;99.90
18392;DHT22;9322;50.932;5.318;2022-12-20T05:09:53;11.60;99.90
18392;DHT22;9322;50.932;5.318;2022-12-20T05:12:19;11.70;99.90
18392;DHT22;9322;50.932;5.318;2022-12-20T05:14:44;11.70;99.90
18392;DHT22;9322;50.932;5.318;2022-12-20T05:17:10;11.80;99.90
18392;DHT22;9322;50.932;5.318;2022-12-20T05:19:36;11.70;99.90
18392;DHT22;9322;50.932;5.318;2022-12-20T05:22:01;11.70;99.90
18392;DHT22;9322;50.932;5.318;2022-12-20T05:24:46;11.80;99.90
18392;DHT22;9322;50.932;5.318;2022-12-20T05:27:30;11.90;99.90
18392;DHT22;9322;50.932;5.318;2022-12-20T05:29:55;11.80;99.90
18392;DHT22;9322;50.932;5.318;2022-12-20T05:32:21;11.80;99.90
18392;DHT22;9322;50.932;5.318;2022-12-20T05:34:47;11.80;99.90
18392;DHT22;9322;50.932;5.318;2022-12-20T05:37:12;11.90;99.90
18392;DHT22;9322;50.932;5.318;2022-12-20T05:39:38;11.80;99.90
18392;DHT22;9322;50.932;5.318;2022-12-20T05:42:04;11.90;99.90
18392;DHT22;9322;50.932;5.318;2022-12-20T05:44:30;11.90;99.90
18392;DHT22;9322;50.932;5.318;2022-12-20T05:46:55;11.80;99.90
18392;DHT22;9322;50.932;5.318;2022-12-20T05:49:21;11.90;99.90
18392;DHT22;9322;50.932;5.318;2022-12-20T05:51:46;11.90;99.90
18392;DHT22;9322;50.932;5.318;2022-12-20T05:54:12;11.90;99.90
18392;DHT22;9322;50.932;5.318;2022-12-20T05:56:38;11.90;99.90
18392;DHT22;9322;50.932;5.318;2022-12-20T05:59:03;11.80;99.90
18392;DHT22;9322;50.932;5.318;2022-12-20T06:01:29;12.10;99.90
18392;DHT22;9322;50.932;5.318;2022-12-20T06:03:55;11.90;99.90
18392;DHT22;9322;50.932;5.318;2022-12-20T06:06:21;11.90;99.90
18392;DHT22;9322;50.932;5.318;2022-12-20T06:08:46;12.00;99.90
18392;DHT22;9322;50.932;5.318;2022-12-20T06:11:12;11.90;99.90
18392;DHT22;9322;50.932;5.318;2022-12-20T06:13:38;11.90;99.90
18392;DHT22;9322;50.932;5.318;2022-12-20T06:16:03;12.20;99.90
18392;DHT22;9322;50.932;5.318;2022-12-20T06:18:29;11.90;99.90
18392;DHT22;9322;50.932;5.318;2022-12-20T06:20:55;11.90;99.90
18392;DHT22;9322;50.932;5.318;2022-12-20T06:23:21;11.80;99.90
18392;DHT22;9322;50.932;5.318;2022-12-20T06:25:46;11.90;99.90
18392;DHT22;9322;50.932;5.318;2022-12-20T06:28:12;11.90;99.90
18392;DHT22;9322;50.932;5.318;2022-12-20T06:30:39;11.90;99.90
18392;DHT22;9322;50.932;5.318;2022-12-20T06:33:04;11.90;99.90
18392;DHT22;9322;50.932;5.318;2022-12-20T06:35:30;11.90;99.90
18392;DHT22;9322;50.932;5.318;2022-12-20T06:37:56;12.00;99.90
18392;DHT22;9322;50.932;5.318;2022-12-20T06:40:22;11.90;99.90
18392;DHT22;9322;50.932;5.318;2022-12-20T06:42:47;11.90;99.90
18392;DHT22;9322;50.932;5.318;2022-12-20T06:45:15;11.80;99.90
18392;DHT22;9322;50.932;5.318;2022-12-20T06:47:40;11.80;99.90
18392;DHT22;9322;50.932;5.318;2022-12-20T06:50:07;11.80;99.90
18392;DHT22;9322;50.932;5.318;2022-12-20T06:52:32;11.80;99.90
18392;DHT22;9322;50.932;5.318;2022-12-20T06:54:58;11.70;99.90
18392;DHT22;9322;50.932;5.318;2022-12-20T06:57:24;11.70;99.90
18392;DHT22;9322;50.932;5.318;2022-12-20T06:59:49;11.70;99.90
18392;DHT22;9322;50.932;5.318;2022-12-20T07:02:15;11.80;99.90
18392;DHT22;9322;50.932;5.318;2022-12-20T07:04:41;11.80;99.90
18392;DHT22;9322;50.932;5.318;2022-12-20T07:07:07;11.80;99.90
18392;DHT22;9322;50.932;5.318;2022-12-20T07:09:33;11.90;99.90
18392;DHT22;9322;50.932;5.318;2022-12-20T07:11:59;11.90;99.90
18392;DHT22;9322;50.932;5.318;2022-12-20T07:14:24;12.10;99.90
18392;DHT22;9322;50.932;5.318;2022-12-20T07:16:50;12.20;99.90
18392;DHT22;9322;50.932;5.318;2022-12-20T07:19:16;11.90;99.90
18392;DHT22;9322;50.932;5.318;2022-12-20T07:21:42;12.00;99.90
18392;DHT22;9322;50.932;5.318;2022-12-20T07:24:08;12.00;99.90
18392;DHT22;9322;50.932;5.318;2022-12-20T07:26:34;12.00;99.90
18392;DHT22;9322;50.932;5.318;2022-12-20T07:28:59;12.10;99.90
18392;DHT22;9322;50.932;5.318;2022-12-20T07:31:25;12.00;99.90
18392;DHT22;9322;50.932;5.318;2022-12-20T07:33:51;12.00;99.90
18392;DHT22;9322;50.932;5.318;2022-12-20T07:36:16;12.00;99.90
18392;DHT22;9322;50.932;5.318;2022-12-20T07:38:42;12.10;99.90
18392;DHT22;9322;50.932;5.318;2022-12-20T07:41:13;12.00;99.90
18392;DHT22;9322;50.932;5.318;2022-12-20T07:43:39;11.90;99.90
18392;DHT22;9322;50.932;5.318;2022-12-20T07:46:05;11.90;99.90
18392;DHT22;9322;50.932;5.318;2022-12-20T07:48:32;11.90;99.90
18392;DHT22;9322;50.932;5.318;2022-12-20T07:51:02;11.80;99.90
18392;DHT22;9322;50.932;5.318;2022-12-20T07:53:30;11.80;99.90
18392;DHT22;9322;50.932;5.318;2022-12-20T07:55:59;11.80;99.90
18392;DHT22;9322;50.932;5.318;2022-12-20T07:58:26;11.90;99.90
18392;DHT22;9322;50.932;5.318;2022-12-20T08:00:53;11.90;99.90
18392;DHT22;9322;50.932;5.318;2022-12-20T08:03:22;11.90;99.90
18392;DHT22;9322;50.932;5.318;2022-12-20T08:05:53;12.10;99.90
18392;DHT22;9322;50.932;5.318;2022-12-20T08:08:20;12.00;99.90
18392;DHT22;9322;50.932;5.318;2022-12-20T08:10:46;12.10;99.90
18392;DHT22;9322;50.932;5.318;2022-12-20T08:13:13;12.10;99.90
18392;DHT22;9322;50.932;5.318;2022-12-20T08:15:39;12.10;99.90
18392;DHT22;9322;50.932;5.318;2022-12-20T08:18:05;12.00;99.90
18392;DHT22;9322;50.932;5.318;2022-12-20T08:20:31;12.10;99.90
18392;DHT22;9322;50.932;5.318;2022-12-20T08:22:57;12.00;99.90
18392;DHT22;9322;50.932;5.318;2022-12-20T08:25:23;12.00;99.90
18392;DHT22;9322;50.932;5.318;2022-12-20T08:27:49;12.40;99.90
18392;DHT22;9322;50.932;5.318;2022-12-20T08:30:16;12.00;99.90
18392;DHT22;9322;50.932;5.318;2022-12-20T08:32:41;11.90;99.90
18392;DHT22;9322;50.932;5.318;2022-12-20T08:35:07;11.70;99.90
18392;DHT22;9322;50.932;5.318;2022-12-20T08:37:33;11.50;99.90
18392;DHT22;9322;50.932;5.318;2022-12-20T08:39:59;11.40;99.90
18392;DHT22;9322;50.932;5.318;2022-12-20T08:42:28;11.50;99.90
18392;DHT22;9322;50.932;5.318;2022-12-20T08:44:54;11.50;99.90
18392;DHT22;9322;50.932;5.318;2022-12-20T08:47:19;11.60;99.90
18392;DHT22;9322;50.932;5.318;2022-12-20T08:49:45;11.50;99.90
18392;DHT22;9322;50.932;5.318;2022-12-20T08:52:11;11.60;99.90
18392;DHT22;9322;50.932;5.318;2022-12-20T08:54:36;11.60;99.90
18392;DHT22;9322;50.932;5.318;2022-12-20T08:57:02;11.70;99.90
18392;DHT22;9322;50.932;5.318;2022-12-20T08:59:27;11.60;99.90
18392;DHT22;9322;50.932;5.318;2022-12-20T09:01:53;11.70;99.90
18392;DHT22;9322;50.932;5.318;2022-12-20T09:04:20;11.70;99.90
18392;DHT22;9322;50.932;5.318;2022-12-20T09:06:45;11.70;99.90
18392;DHT22;9322;50.932;5.318;2022-12-20T09:09:12;11.80;99.90
18392;DHT22;9322;50.932;5.318;2022-12-20T09:11:38;11.60;99.90
18392;DHT22;9322;50.932;5.318;2022-12-20T09:14:03;11.80;99.90
18392;DHT22;9322;50.932;5.318;2022-12-20T09:16:31;11.80;99.90
18392;DHT22;9322;50.932;5.318;2022-12-20T09:18:58;11.90;99.90
18392;DHT22;9322;50.932;5.318;2022-12-20T09:21:25;11.90;99.90
18392;DHT22;9322;50.932;5.318;2022-12-20T09:23:52;12.00;99.90
18392;DHT22;9322;50.932;5.318;2022-12-20T09:26:20;11.90;99.90
18392;DHT22;9322;50.932;5.318;2022-12-20T09:28:47;11.80;99.90
18392;DHT22;9322;50.932;5.318;2022-12-20T09:31:14;11.90;99.90
18392;DHT22;9322;50.932;5.318;2022-12-20T09:33:41;12.00;99.90
18392;DHT22;9322;50.932;5.318;2022-12-20T09:36:18;12.00;99.90
18392;DHT22;9322;50.932;5.318;2022-12-20T09:38:44;12.10;99.90
18392;DHT22;9322;50.932;5.318;2022-12-20T09:41:34;12.20;99.90
18392;DHT22;9322;50.932;5.318;2022-12-20T09:44:15;12.10;99.90
18392;DHT22;9322;50.932;5.318;2022-12-20T09:46:43;12.10;99.90
18392;DHT22;9322;50.932;5.318;2022-12-20T09:49:14;12.30;99.90
18392;DHT22;9322;50.932;5.318;2022-12-20T09:52:16;12.20;99.90
18392;DHT22;9322;50.932;5.318;2022-12-20T10:00:20;12.20;99.90
18392;DHT22;9322;50.932;5.318;2022-12-20T10:02:46;12.20;99.90
18392;DHT22;9322;50.932;5.318;2022-12-20T10:05:21;12.20;99.90
18392;DHT22;9322;50.932;5.318;2022-12-20T10:08:01;12.20;99.90
18392;DHT22;9322;50.932;5.318;2022-12-20T10:11:03;12.20;99.90
18392;DHT22;9322;50.932;5.318;2022-12-20T10:16:44;12.10;99.90
18392;DHT22;9322;50.932;5.318;2022-12-20T10:19:20;12.30;99.90
18392;DHT22;9322;50.932;5.318;2022-12-20T10:22:13;12.30;99.90
18392;DHT22;9322;50.932;5.318;2022-12-20T10:24:47;12.20;99.90
18392;DHT22;9322;50.932;5.318;2022-12-20T10:27:19;12.30;99.90
18392;DHT22;9322;50.932;5.318;2022-12-20T10:29:47;12.40;99.90
18392;DHT22;9322;50.932;5.318;2022-12-20T10:32:16;12.50;99.90
18392;DHT22;9322;50.932;5.318;2022-12-20T10:37:34;12.50;99.90
18392;DHT22;9322;50.932;5.318;2022-12-20T10:39:59;12.50;99.90
18392;DHT22;9322;50.932;5.318;2022-12-20T10:42:43;12.50;99.90
18392;DHT22;9322;50.932;5.318;2022-12-20T10:47:43;12.50;99.90
18392;DHT22;9322;50.932;5.318;2022-12-20T10:50:22;12.50;99.90
18392;DHT22;9322;50.932;5.318;2022-12-20T10:55:38;12.70;99.90
18392;DHT22;9322;50.932;5.318;2022-12-20T10:58:11;12.60;99.90
18392;DHT22;9322;50.932;5.318;2022-12-20T11:00:38;12.50;99.90
18392;DHT22;9322;50.932;5.318;2022-12-20T11:03:20;12.30;99.90
18392;DHT22;9322;50.932;5.318;2022-12-20T11:06:00;12.30;99.90
18392;DHT22;9322;50.932;5.318;2022-12-20T11:08:29;12.10;99.90
18392;DHT22;9322;50.932;5.318;2022-12-20T11:11:16;11.80;99.90
18392;DHT22;9322;50.932;5.318;2022-12-20T11:13:43;11.80;99.90
18392;DHT22;9322;50.932;5.318;2022-12-20T11:16:22;12.00;99.90
18392;DHT22;9322;50.932;5.318;2022-12-20T11:19:20;12.00;99.90
18392;DHT22;9322;50.932;5.318;2022-12-20T11:22:15;11.90;99.90
18392;DHT22;9322;50.932;5.318;2022-12-20T11:30:53;12.00;99.90
18392;DHT22;9322;50.932;5.318;2022-12-20T11:33:40;11.80;99.90
18392;DHT22;9322;50.932;5.318;2022-12-20T11:38:47;11.80;99.90
18392;DHT22;9322;50.932;5.318;2022-12-20T11:44:33;11.70;99.90
18392;DHT22;9322;50.932;5.318;2022-12-20T11:52:38;11.30;99.90
18392;DHT22;9322;50.932;5.318;2022-12-20T12:01:11;11.40;99.90
18392;DHT22;9322;50.932;5.318;2022-12-20T12:03:40;11.30;99.90
18392;DHT22;9322;50.932;5.318;2022-12-20T12:06:35;11.40;99.90
18392;DHT22;9322;50.932;5.318;2022-12-20T12:11:52;11.30;99.90
18392;DHT22;9322;50.932;5.318;2022-12-20T12:14:49;11.40;99.90
18392;DHT22;9322;50.932;5.318;2022-12-20T12:17:26;11.40;99.90
18392;DHT22;9322;50.932;5.318;2022-12-20T12:19:55;11.40;99.90
18392;DHT22;9322;50.932;5.318;2022-12-20T12:22:28;11.40;99.90
18392;DHT22;9322;50.932;5.318;2022-12-20T12:24:59;11.40;99.90
18392;DHT22;9322;50.932;5.318;2022-12-20T12:27:26;11.30;99.90
18392;DHT22;9322;50.932;5.318;2022-12-20T12:29:53;11.20;99.90
18392;DHT22;9322;50.932;5.318;2022-12-20T12:32:54;11.40;99.90
18392;DHT22;9322;50.932;5.318;2022-12-20T12:35:37;11.40;99.90
18392;DHT22;9322;50.932;5.318;2022-12-20T12:41:39;11.50;99.90
18392;DHT22;9322;50.932;5.318;2022-12-20T12:46:53;11.50;99.90
18392;DHT22;9322;50.932;5.318;2022-12-20T12:49:21;11.50;99.90
18392;DHT22;9322;50.932;5.318;2022-12-20T12:51:52;11.40;99.90
18392;DHT22;9322;50.932;5.318;2022-12-20T12:54:22;11.20;99.90
18392;DHT22;9322;50.932;5.318;2022-12-20T12:56:53;11.00;99.90
18392;DHT22;9322;50.932;5.318;2022-12-20T12:59:41;11.10;99.90
18392;DHT22;9322;50.932;5.318;2022-12-20T13:07:41;11.10;99.90
18392;DHT22;9322;50.932;5.318;2022-12-20T13:20:26;10.80;99.90
18392;DHT22;9322;50.932;5.318;2022-12-20T13:25:35;10.80;99.90
18392;DHT22;9322;50.932;5.318;2022-12-20T13:33:47;10.80;99.90
18392;DHT22;9322;50.932;5.318;2022-12-20T13:44:07;10.80;99.90
18392;DHT22;9322;50.932;5.318;2022-12-20T13:49:38;10.70;99.90
18392;DHT22;9322;50.932;5.318;2022-12-20T13:54:43;10.70;99.90
18392;DHT22;9322;50.932;5.318;2022-12-20T13:57:20;10.70;99.90
18392;DHT22;9322;50.932;5.318;2022-12-20T13:59:49;10.70;99.90
18392;DHT22;9322;50.932;5.318;2022-12-20T14:02:35;10.80;99.90
18392;DHT22;9322;50.932;5.318;2022-12-20T14:05:16;10.70;99.90
18392;DHT22;9322;50.932;5.318;2022-12-20T14:07:46;10.70;99.90
18392;DHT22;9322;50.932;5.318;2022-12-20T14:10:22;10.70;99.90
18392;DHT22;9322;50.932;5.318;2022-12-20T14:12:52;10.70;99.90
18392;DHT22;9322;50.932;5.318;2022-12-20T14:17:51;10.70;99.90
18392;DHT22;9322;50.932;5.318;2022-12-20T14:20:27;10.70;99.90
18392;DHT22;9322;50.932;5.318;2022-12-20T14:23:03;10.70;99.90
18392;DHT22;9322;50.932;5.318;2022-12-20T14:25:48;10.70;99.90
18392;DHT22;9322;50.932;5.318;2022-12-20T14:28:26;10.70;99.90
18392;DHT22;9322;50.932;5.318;2022-12-20T14:30:55;10.70;99.90
18392;DHT22;9322;50.932;5.318;2022-12-20T14:33:28;10.70;99.90
18392;DHT22;9322;50.932;5.318;2022-12-20T14:35:54;10.70;99.90
18392;DHT22;9322;50.932;5.318;2022-12-20T14:38:27;10.70;99.90
18392;DHT22;9322;50.932;5.318;2022-12-20T14:40:53;10.80;99.90
18392;DHT22;9322;50.932;5.318;2022-12-20T14:43:31;10.80;99.90
18392;DHT22;9322;50.932;5.318;2022-12-20T14:46:26;10.80;99.90
18392;DHT22;9322;50.932;5.318;2022-12-20T14:51:41;10.80;99.90
18392;DHT22;9322;50.932;5.318;2022-12-20T14:54:19;10.80;99.90
18392;DHT22;9322;50.932;5.318;2022-12-20T14:56:48;10.90;99.90
18392;DHT22;9322;50.932;5.318;2022-12-20T14:59:21;10.70;99.90
18392;DHT22;9322;50.932;5.318;2022-12-20T15:01:49;10.80;99.90
18392;DHT22;9322;50.932;5.318;2022-12-20T15:04:30;11.00;99.90
18392;DHT22;9322;50.932;5.318;2022-12-20T15:06:57;10.90;99.90
18392;DHT22;9322;50.932;5.318;2022-12-20T15:09:23;10.90;99.90
18392;DHT22;9322;50.932;5.318;2022-12-20T15:11:49;10.90;99.90
18392;DHT22;9322;50.932;5.318;2022-12-20T15:14:36;10.90;99.90
18392;DHT22;9322;50.932;5.318;2022-12-20T15:17:08;10.90;99.90
18392;DHT22;9322;50.932;5.318;2022-12-20T15:19:35;10.90;99.90
18392;DHT22;9322;50.932;5.318;2022-12-20T15:22:00;10.90;99.90
18392;DHT22;9322;50.932;5.318;2022-12-20T15:24:27;10.80;99.90
18392;DHT22;9322;50.932;5.318;2022-12-20T15:26:54;10.90;99.90
18392;DHT22;9322;50.932;5.318;2022-12-20T15:29:24;10.90;99.90
18392;DHT22;9322;50.932;5.318;2022-12-20T15:31:55;10.80;99.90
18392;DHT22;9322;50.932;5.318;2022-12-20T15:34:29;10.90;99.90
18392;DHT22;9322;50.932;5.318;2022-12-20T15:36:56;10.90;99.90
18392;DHT22;9322;50.932;5.318;2022-12-20T15:39:25;11.00;99.90
18392;DHT22;9322;50.932;5.318;2022-12-20T15:41:51;11.00;99.90
18392;DHT22;9322;50.932;5.318;2022-12-20T15:44:22;10.90;99.90
18392;DHT22;9322;50.932;5.318;2022-12-20T15:46:49;10.90;99.90
18392;DHT22;9322;50.932;5.318;2022-12-20T15:49:20;10.90;99.90
18392;DHT22;9322;50.932;5.318;2022-12-20T15:51:47;10.90;99.90
18392;DHT22;9322;50.932;5.318;2022-12-20T15:56:47;10.80;99.90
18392;DHT22;9322;50.932;5.318;2022-12-20T15:59:12;10.90;99.90
18392;DHT22;9322;50.932;5.318;2022-12-20T16:01:38;10.80;99.90
18392;DHT22;9322;50.932;5.318;2022-12-20T16:04:05;10.70;99.90
18392;DHT22;9322;50.932;5.318;2022-12-20T16:06:31;10.60;99.90
18392;DHT22;9322;50.932;5.318;2022-12-20T16:08:57;10.70;99.90
18392;DHT22;9322;50.932;5.318;2022-12-20T16:11:25;10.70;99.90
18392;DHT22;9322;50.932;5.318;2022-12-20T16:13:55;10.80;99.90
18392;DHT22;9322;50.932;5.318;2022-12-20T16:16:41;10.90;99.90
18392;DHT22;9322;50.932;5.318;2022-12-20T16:19:09;10.80;99.90
18392;DHT22;9322;50.932;5.318;2022-12-20T16:21:49;11.00;99.90
18392;DHT22;9322;50.932;5.318;2022-12-20T16:24:18;11.00;99.90
18392;DHT22;9322;50.932;5.318;2022-12-20T16:26:44;11.10;99.90
18392;DHT22;9322;50.932;5.318;2022-12-20T16:29:11;11.00;99.90
18392;DHT22;9322;50.932;5.318;2022-12-20T16:31:38;10.90;99.90
18392;DHT22;9322;50.932;5.318;2022-12-20T16:34:22;10.90;99.90
18392;DHT22;9322;50.932;5.318;2022-12-20T16:36:47;10.90;99.90
18392;DHT22;9322;50.932;5.318;2022-12-20T16:39:13;10.90;99.90
18392;DHT22;9322;50.932;5.318;2022-12-20T16:41:39;10.80;99.90
18392;DHT22;9322;50.932;5.318;2022-12-20T16:44:14;10.90;99.90
18392;DHT22;9322;50.932;5.318;2022-12-20T16:46:40;10.80;99.90
18392;DHT22;9322;50.932;5.318;2022-12-20T16:49:07;10.70;99.90
18392;DHT22;9322;50.932;5.318;2022-12-20T16:51:42;10.80;99.90
18392;DHT22;9322;50.932;5.318;2022-12-20T16:54:20;10.70;99.90
18392;DHT22;9322;50.932;5.318;2022-12-20T16:56:47;10.80;99.90
18392;DHT22;9322;50.932;5.318;2022-12-20T16:59:15;10.70;99.90
18392;DHT22;9322;50.932;5.318;2022-12-20T17:01:41;10.70;99.90
18392;DHT22;9322;50.932;5.318;2022-12-20T17:04:13;10.80;99.90
18392;DHT22;9322;50.932;5.318;2022-12-20T17:06:39;10.70;99.90
18392;DHT22;9322;50.932;5.318;2022-12-20T17:09:05;10.60;99.90
18392;DHT22;9322;50.932;5.318;2022-12-20T17:11:31;10.70;99.90
18392;DHT22;9322;50.932;5.318;2022-12-20T17:13:58;10.60;99.90
18392;DHT22;9322;50.932;5.318;2022-12-20T17:16:24;10.60;99.90
18392;DHT22;9322;50.932;5.318;2022-12-20T17:18:52;10.70;99.90
18392;DHT22;9322;50.932;5.318;2022-12-20T17:21:23;10.70;99.90
18392;DHT22;9322;50.932;5.318;2022-12-20T17:23:51;10.70;99.90
18392;DHT22;9322;50.932;5.318;2022-12-20T17:26:23;10.70;99.90
18392;DHT22;9322;50.932;5.318;2022-12-20T17:28:51;10.80;99.90
18392;DHT22;9322;50.932;5.318;2022-12-20T17:33:57;10.80;99.90
18392;DHT22;9322;50.932;5.318;2022-12-20T17:36:23;10.80;99.90
18392;DHT22;9322;50.932;5.318;2022-12-20T17:38:49;10.80;99.90
18392;DHT22;9322;50.932;5.318;2022-12-20T17:41:29;10.80;99.90
18392;DHT22;9322;50.932;5.318;2022-12-20T17:43:57;10.80;99.90
18392;DHT22;9322;50.932;5.318;2022-12-20T17:46:23;10.70;99.90
18392;DHT22;9322;50.932;5.318;2022-12-20T17:48:49;10.70;99.90
18392;DHT22;9322;50.932;5.318;2022-12-20T17:51:26;10.60;99.90
18392;DHT22;9322;50.932;5.318;2022-12-20T17:53:55;10.70;99.90
18392;DHT22;9322;50.932;5.318;2022-12-20T17:56:23;10.80;99.90
18392;DHT22;9322;50.932;5.318;2022-12-20T17:58:50;10.80;99.90